Hlavní strana
METAR-TAF:

METAR-TAF

Letiště :

Benghází, Libye

zeměpisná šířka: 32-06N, zeměpisná délka: 020-16E, výška: 131 m

METAR: chybějící

Čas: 23:00 (21:00 UTC)

Předpověď počasí

Zpráva byla vytvořena před 40 hodinami a 0 minutami, v 05:00 UTC
Předpověď platná od 03 v 06 UTC do 04 v 06 UTC
Jižní vítr 20 kt s nárazy do 30 kt
Viditelnost: 3000 m
zvířený písek
Pravděpodobnost %
mezi 40 a UTC
Dočasný
od 03 v 06 UTC do 03 v 18 UTC
Viditelnost: 0800 m
Změna
od 04 v 02 UTC do 04 v 02 UTC
Západní vítr 12 kt
Viditelnost: 7000 m
Polojasno ve výšce 2500 ft

TAF: HLLB 030500Z 0306/0406 17020G30KT 3000 BLSA PROB 40 TEMPO 0306/0318 0800 DS BECMG 0402/0402 27012KT 7000 SCT025 SCT07

Stav a předpovědi počasí z více než 4 000 letišť (zprávy METAR a TAF).

Červené a žluté tečky na mapě představují dostupné meteorologické stanice.

Když kurzor umístíte na tečku, zobrazí se název stanice.

Pak kliknutím zobrazíte stav a předpověď počasí.

Chcete-li změnit mapu, kliknutím na zelené tlačítko se znaménkem +mapu přiblížíte, kliknutím na zelené tlačítko se znaménkem – mapu oddálíte a kliknutím na zelené šipky přejdete na sousední mapy.


METAR-TAF: